createdAt,value
2017-12-14T00:00:45.423Z,73.00
2017-12-14T00:03:19.260Z,72.90
2017-12-14T00:05:53.429Z,72.90
2017-12-14T00:08:27.140Z,73.10
2017-12-14T00:11:00.837Z,72.90
2017-12-14T00:13:34.352Z,73.00
2017-12-14T00:16:07.997Z,72.70
2017-12-14T00:18:42.538Z,72.80
2017-12-14T00:21:16.365Z,72.80
2017-12-14T00:23:49.969Z,73.00
2017-12-14T00:26:23.529Z,72.90
2017-12-14T00:28:57.134Z,73.00
2017-12-14T00:31:31.589Z,73.00
2017-12-14T00:34:05.260Z,73.00
2017-12-14T00:36:38.849Z,72.90
2017-12-14T00:39:12.385Z,72.70
2017-12-14T00:41:46.056Z,72.60
2017-12-14T00:44:19.792Z,72.40
2017-12-14T00:46:53.296Z,72.00
2017-12-14T00:49:27.870Z,72.20
2017-12-14T00:52:01.593Z,72.40
2017-12-14T00:54:35.188Z,72.20
2017-12-14T00:57:08.730Z,72.20
2017-12-14T00:59:42.676Z,72.10
2017-12-14T01:02:17.153Z,71.80
2017-12-14T01:04:50.748Z,71.80
2017-12-14T01:07:24.252Z,71.70
2017-12-14T01:09:57.756Z,71.60
2017-12-14T01:12:31.507Z,71.60
2017-12-14T01:15:05.272Z,71.40
2017-12-14T01:17:39.796Z,70.90
2017-12-14T01:20:13.300Z,70.90
2017-12-14T01:22:46.851Z,70.90
2017-12-14T01:25:20.343Z,70.60
2017-12-14T01:28:14.199Z,70.40
2017-12-14T01:30:47.685Z,70.40
2017-12-14T01:33:21.296Z,70.40
2017-12-14T01:35:55.181Z,70.30
2017-12-14T01:38:28.682Z,70.30
2017-12-14T01:41:02.996Z,70.00
2017-12-14T01:43:37.388Z,70.30
2017-12-14T01:46:11.120Z,69.70
2017-12-14T01:48:44.655Z,69.60
2017-12-14T01:51:18.213Z,69.30
2017-12-14T01:53:51.679Z,69.60
2017-12-14T01:56:25.364Z,69.30
2017-12-14T01:58:59.119Z,69.20
2017-12-14T02:01:32.617Z,69.20
2017-12-14T02:04:06.907Z,69.50
2017-12-14T02:06:40.476Z,69.50
2017-12-14T02:09:13.959Z,69.50
2017-12-14T02:11:48.411Z,69.40
2017-12-14T02:14:22.168Z,69.40
2017-12-14T02:16:55.660Z,69.20
2017-12-14T02:19:29.935Z,69.00
2017-12-14T02:22:03.667Z,68.50
2017-12-14T02:24:37.281Z,68.80
2017-12-14T02:27:10.780Z,68.40
2017-12-14T02:29:44.382Z,68.30
2017-12-14T02:32:17.875Z,67.90
2017-12-14T02:34:51.455Z,67.80
2017-12-14T02:37:25.077Z,67.90
2017-12-14T02:39:58.678Z,67.40
2017-12-14T02:42:32.288Z,67.60
2017-12-14T02:45:06.089Z,67.90
2017-12-14T02:47:39.685Z,67.50
2017-12-14T02:50:13.243Z,67.50
2017-12-14T02:52:46.747Z,66.90
2017-12-14T02:55:20.367Z,67.40
2017-12-14T02:57:53.952Z,67.50
2017-12-14T03:00:27.759Z,68.10
2017-12-14T03:03:01.391Z,67.90
2017-12-14T03:05:34.884Z,69.00
2017-12-14T03:08:08.453Z,69.30
2017-12-14T03:10:41.963Z,69.90
2017-12-14T03:13:15.471Z,69.70
2017-12-14T03:15:49.803Z,69.90
2017-12-14T03:18:23.516Z,69.90
2017-12-14T03:20:57.114Z,70.30
2017-12-14T03:23:30.613Z,70.30
2017-12-14T03:26:04.214Z,70.30
2017-12-14T03:28:38.012Z,70.50
2017-12-14T03:31:11.617Z,70.80
2017-12-14T03:33:45.511Z,70.90
2017-12-14T03:36:19.953Z,71.10
2017-12-14T03:38:53.671Z,71.10
2017-12-14T03:41:27.198Z,71.40
2017-12-14T03:44:00.752Z,71.30
2017-12-14T03:46:34.343Z,71.30
2017-12-14T03:49:08.164Z,71.20
2017-12-14T03:51:42.472Z,70.90
2017-12-14T03:54:16.994Z,70.50
2017-12-14T03:56:50.576Z,70.50
2017-12-14T03:59:24.093Z,70.50
2017-12-14T04:01:57.792Z,70.50
2017-12-14T04:04:31.299Z,70.50
2017-12-14T04:07:04.861Z,70.00
2017-12-14T04:09:38.600Z,69.70
2017-12-14T04:12:12.299Z,70.10
2017-12-14T04:14:45.911Z,69.90
2017-12-14T04:17:19.482Z,69.20
2017-12-14T04:19:53.086Z,68.20
2017-12-14T04:22:26.808Z,67.60
2017-12-14T04:25:00.409Z,67.20
2017-12-14T04:27:34.072Z,66.80
2017-12-14T04:30:07.606Z,66.20
2017-12-14T04:32:41.147Z,66.10
2017-12-14T04:35:14.687Z,65.90
2017-12-14T04:37:48.256Z,66.10
2017-12-14T04:40:21.815Z,65.70
2017-12-14T04:42:55.412Z,65.50
2017-12-14T04:45:29.007Z,65.20
2017-12-14T04:48:02.716Z,65.20
2017-12-14T04:50:36.424Z,65.70
2017-12-14T04:53:10.844Z,64.50
2017-12-14T04:55:44.435Z,64.40
2017-12-14T04:58:18.131Z,63.70
2017-12-14T05:00:51.715Z,63.70
2017-12-14T05:03:25.220Z,63.30
2017-12-14T05:05:59.048Z,62.40
2017-12-14T05:08:32.651Z,62.50
2017-12-14T05:11:07.068Z,62.00
2017-12-14T05:13:41.548Z,62.30
2017-12-14T05:16:15.187Z,62.10
2017-12-14T05:18:48.899Z,61.70
2017-12-14T05:21:22.700Z,61.30
2017-12-14T05:23:56.302Z,60.90
2017-12-14T05:26:30.103Z,60.80
2017-12-14T05:29:03.717Z,60.70
2017-12-14T05:31:37.295Z,61.20
2017-12-14T05:34:10.909Z,60.50
2017-12-14T05:36:44.716Z,60.50
2017-12-14T05:39:18.331Z,60.10
2017-12-14T05:41:51.921Z,60.40
2017-12-14T05:44:25.625Z,59.90
2017-12-14T05:46:59.123Z,59.50
2017-12-14T05:49:32.655Z,58.90
2017-12-14T05:52:06.446Z,59.30
2017-12-14T05:54:40.019Z,59.00
2017-12-14T05:57:13.624Z,59.30
2017-12-14T05:59:48.151Z,58.60
2017-12-14T06:02:21.727Z,58.60
2017-12-14T06:04:55.348Z,59.00
2017-12-14T06:07:28.887Z,59.00
2017-12-14T06:10:02.678Z,58.30
2017-12-14T06:12:36.146Z,58.80
2017-12-14T06:15:09.757Z,58.00
2017-12-14T06:17:43.303Z,58.30
2017-12-14T06:20:18.593Z,57.90
2017-12-14T06:22:52.295Z,57.80
2017-12-14T06:25:25.998Z,58.00
2017-12-14T06:27:59.596Z,58.30
2017-12-14T06:30:33.205Z,58.00
2017-12-14T06:33:06.808Z,58.00
2017-12-14T06:35:40.506Z,58.00
2017-12-14T06:38:13.979Z,57.90
2017-12-14T06:40:47.735Z,57.90
2017-12-14T06:43:21.263Z,57.00
2017-12-14T06:45:54.895Z,56.90
2017-12-14T06:48:28.551Z,56.60
2017-12-14T06:51:02.052Z,56.60
2017-12-14T06:53:35.707Z,56.10
2017-12-14T06:56:09.297Z,56.60
2017-12-14T06:58:42.870Z,56.00
2017-12-14T07:01:16.524Z,55.60
2017-12-14T07:03:50.099Z,55.70
2017-12-14T07:06:23.584Z,55.60
2017-12-14T07:08:57.187Z,55.30
2017-12-14T07:11:30.779Z,56.00
2017-12-14T07:14:04.372Z,55.60
2017-12-14T07:16:37.913Z,55.60
2017-12-14T07:19:11.487Z,55.50
2017-12-14T07:21:45.836Z,55.40
2017-12-14T07:24:19.411Z,55.40
2017-12-14T07:26:53.038Z,55.20
2017-12-14T07:29:26.638Z,55.20
2017-12-14T07:32:00.341Z,55.00
2017-12-14T07:34:33.944Z,55.20
2017-12-14T07:37:07.531Z,55.10
2017-12-14T07:39:41.263Z,55.60
2017-12-14T07:42:26.923Z,55.50
2017-12-14T07:45:12.495Z,56.20
2017-12-14T07:47:57.890Z,55.90
2017-12-14T07:50:31.490Z,55.80
2017-12-14T07:53:05.084Z,55.60
2017-12-14T07:55:39.044Z,55.80
2017-12-14T07:58:12.860Z,55.30
2017-12-14T08:00:46.587Z,55.80
2017-12-14T08:03:20.171Z,55.80
2017-12-14T08:05:53.803Z,55.90
2017-12-14T08:08:27.359Z,55.80
2017-12-14T08:11:01.027Z,55.90
2017-12-14T08:13:34.563Z,56.10
2017-12-14T08:16:08.218Z,56.00
2017-12-14T08:18:42.734Z,56.80
2017-12-14T08:21:16.460Z,56.20
2017-12-14T08:23:50.023Z,56.90
2017-12-14T08:26:23.596Z,56.00
2017-12-14T08:28:57.143Z,56.80
2017-12-14T08:31:30.713Z,56.40
2017-12-14T08:34:04.447Z,56.40
2017-12-14T08:36:38.968Z,56.60
2017-12-14T08:39:12.538Z,56.50
2017-12-14T08:41:46.263Z,56.70
2017-12-14T08:44:19.873Z,56.80
2017-12-14T08:46:53.526Z,57.10
2017-12-14T08:49:27.167Z,56.90
2017-12-14T08:52:00.777Z,56.90
2017-12-14T08:54:34.424Z,56.90
2017-12-14T08:57:08.274Z,57.20
2017-12-14T08:59:42.187Z,57.30
2017-12-14T09:02:15.768Z,57.30
2017-12-14T09:04:49.355Z,57.10
2017-12-14T09:07:22.997Z,57.40
2017-12-14T09:09:56.598Z,57.10
2017-12-14T09:12:30.191Z,57.20
2017-12-14T09:15:03.796Z,57.20
2017-12-14T09:17:37.403Z,57.40
2017-12-14T09:20:10.975Z,57.40
2017-12-14T09:22:44.602Z,57.70
2017-12-14T09:25:18.291Z,57.50
2017-12-14T09:27:51.961Z,57.70
2017-12-14T09:30:26.225Z,57.70
2017-12-14T09:32:59.919Z,57.70
2017-12-14T09:35:33.471Z,57.90
2017-12-14T09:38:07.133Z,57.40
2017-12-14T09:40:40.824Z,57.30
2017-12-14T09:43:14.381Z,57.40
2017-12-14T09:45:47.928Z,58.00
2017-12-14T09:48:21.532Z,58.00
2017-12-14T09:50:55.236Z,57.90
2017-12-14T09:53:28.742Z,57.70
2017-12-14T09:56:02.298Z,58.00
2017-12-14T09:58:35.911Z,58.00
2017-12-14T10:01:10.332Z,57.50
2017-12-14T10:03:44.164Z,57.60
2017-12-14T10:06:17.860Z,57.90
2017-12-14T10:08:51.461Z,58.20
2017-12-14T10:11:25.979Z,58.80
2017-12-14T10:13:59.683Z,58.20
2017-12-14T10:16:33.394Z,58.20
2017-12-14T10:19:06.900Z,58.50
2017-12-14T10:21:41.409Z,59.20
2017-12-14T10:24:15.224Z,59.20
2017-12-14T10:26:48.815Z,59.40
2017-12-14T10:29:22.415Z,59.40
2017-12-14T10:31:55.975Z,60.00
2017-12-14T10:34:29.522Z,60.30
2017-12-14T10:37:03.221Z,60.60
2017-12-14T10:39:36.726Z,60.70
2017-12-14T10:42:11.197Z,61.10
2017-12-14T10:44:44.836Z,61.00
2017-12-14T10:47:18.439Z,60.70
2017-12-14T10:49:52.254Z,60.70
2017-12-14T10:52:25.957Z,60.70
2017-12-14T10:54:59.558Z,61.10
2017-12-14T10:57:33.160Z,60.90
2017-12-14T11:00:06.716Z,60.90
2017-12-14T11:02:40.465Z,60.40
2017-12-14T11:05:14.267Z,60.50
2017-12-14T11:07:47.972Z,60.70
2017-12-14T11:10:21.672Z,60.20
2017-12-14T11:12:55.252Z,60.20
2017-12-14T11:15:28.766Z,60.00
2017-12-14T11:18:02.479Z,60.20
2017-12-14T11:20:36.071Z,60.10
2017-12-14T11:23:09.679Z,60.20
2017-12-14T11:25:43.223Z,60.00
2017-12-14T11:28:16.795Z,59.90
2017-12-14T11:30:50.277Z,59.90
2017-12-14T11:33:24.075Z,59.80
2017-12-14T11:35:57.651Z,59.80
2017-12-14T11:38:31.183Z,59.70
2017-12-14T11:41:04.775Z,60.30
2017-12-14T11:43:38.352Z,59.80
2017-12-14T11:46:12.115Z,59.60
2017-12-14T11:48:45.688Z,59.50
2017-12-14T11:51:19.288Z,59.30
2017-12-14T11:53:52.852Z,59.50
2017-12-14T11:56:26.493Z,59.70
2017-12-14T11:59:00.085Z,59.80
2017-12-14T12:01:33.799Z,59.20
2017-12-14T12:04:07.389Z,59.50
2017-12-14T12:06:40.967Z,59.80
2017-12-14T12:09:14.593Z,59.30
2017-12-14T12:11:48.167Z,58.90
2017-12-14T12:14:21.795Z,59.30
2017-12-14T12:16:55.604Z,59.30
2017-12-14T12:19:30.124Z,58.60
2017-12-14T12:22:04.651Z,59.00
2017-12-14T12:24:38.238Z,59.10
2017-12-14T12:27:11.963Z,58.60
2017-12-14T12:29:45.547Z,58.70
2017-12-14T12:32:19.121Z,58.60
2017-12-14T12:34:52.957Z,58.90
2017-12-14T12:37:26.565Z,58.60
2017-12-14T12:40:00.261Z,58.80
2017-12-14T12:42:33.842Z,58.80
2017-12-14T12:45:07.331Z,58.20
2017-12-14T12:47:41.755Z,58.90
2017-12-14T12:50:15.388Z,58.80
2017-12-14T12:52:49.188Z,58.90
2017-12-14T12:55:22.999Z,59.00
2017-12-14T12:57:56.691Z,59.20
2017-12-14T13:00:30.395Z,59.70
2017-12-14T13:03:04.098Z,60.10
2017-12-14T13:05:37.908Z,60.70
2017-12-14T13:08:11.513Z,61.80
2017-12-14T13:10:45.088Z,62.40
2017-12-14T13:13:18.677Z,62.40
2017-12-14T13:15:52.284Z,63.10
2017-12-14T13:18:25.880Z,63.40
2017-12-14T13:20:59.489Z,63.60
2017-12-14T13:23:33.067Z,64.30
2017-12-14T13:26:07.427Z,64.70
2017-12-14T13:28:41.032Z,64.60
2017-12-14T13:31:14.731Z,65.00
2017-12-14T13:33:48.290Z,65.30
2017-12-14T13:36:21.832Z,65.10
2017-12-14T13:38:55.407Z,64.80
2017-12-14T13:41:28.884Z,65.20
2017-12-14T13:44:02.752Z,65.60
2017-12-14T13:46:36.312Z,65.30
2017-12-14T13:49:09.927Z,65.40
2017-12-14T13:51:43.451Z,65.40
2017-12-14T13:54:17.352Z,65.40
2017-12-14T13:56:50.949Z,65.70
2017-12-14T13:59:24.603Z,65.30
2017-12-14T14:01:58.259Z,65.80
2017-12-14T14:04:31.826Z,65.90
2017-12-14T14:07:05.427Z,65.90
2017-12-14T14:09:38.931Z,66.30
2017-12-14T14:12:12.754Z,66.10
2017-12-14T14:14:46.360Z,66.20
2017-12-14T14:17:19.947Z,66.50
2017-12-14T14:19:53.547Z,66.50
2017-12-14T14:22:27.131Z,66.50
2017-12-14T14:25:00.673Z,66.50
2017-12-14T14:27:34.160Z,66.50
2017-12-14T14:30:08.676Z,66.50
2017-12-14T14:32:42.287Z,66.50
2017-12-14T14:35:15.996Z,66.30
2017-12-14T14:37:49.689Z,66.50
2017-12-14T14:40:23.387Z,66.60
2017-12-14T14:42:57.039Z,67.00
2017-12-14T14:45:30.823Z,66.90
2017-12-14T14:48:04.369Z,67.10
2017-12-14T14:50:38.000Z,67.00
2017-12-14T14:53:11.611Z,66.70
2017-12-14T14:55:45.309Z,67.20
2017-12-14T14:58:18.909Z,67.00
2017-12-14T15:00:52.507Z,66.40
2017-12-14T15:03:26.103Z,66.70
2017-12-14T15:05:59.723Z,67.10
2017-12-14T15:08:33.415Z,67.10
2017-12-14T15:11:07.227Z,66.70
2017-12-14T15:13:41.126Z,66.80
2017-12-14T15:16:15.549Z,67.50
2017-12-14T15:18:49.352Z,67.30
2017-12-14T15:21:22.915Z,67.50
2017-12-14T15:23:57.375Z,67.60
2017-12-14T15:26:30.977Z,67.40
2017-12-14T15:29:04.563Z,67.50
2017-12-14T15:31:38.139Z,66.90
2017-12-14T15:34:11.594Z,67.40
2017-12-14T15:36:45.171Z,67.50
2017-12-14T15:39:18.781Z,67.10
2017-12-14T15:41:52.276Z,67.40
2017-12-14T15:44:25.831Z,67.60
2017-12-14T15:46:59.480Z,67.40
2017-12-14T15:49:33.077Z,67.30
2017-12-14T15:52:06.674Z,67.50
2017-12-14T15:54:40.276Z,67.50
2017-12-14T15:57:14.515Z,67.70
2017-12-14T15:59:48.402Z,67.90
2017-12-14T16:02:22.101Z,67.60
2017-12-14T16:04:55.571Z,67.60
2017-12-14T16:07:29.194Z,67.80
2017-12-14T16:10:02.912Z,67.90
2017-12-14T16:12:36.567Z,68.00
2017-12-14T16:15:10.080Z,67.80
2017-12-14T16:17:45.016Z,67.30
2017-12-14T16:20:18.644Z,67.30
2017-12-14T16:22:52.244Z,67.50
2017-12-14T16:25:25.814Z,67.30
2017-12-14T16:27:59.339Z,67.00
2017-12-14T16:30:33.019Z,67.10
2017-12-14T16:33:06.647Z,67.30
2017-12-14T16:35:40.243Z,66.80
2017-12-14T16:38:13.848Z,67.10
2017-12-14T16:40:47.339Z,67.00
2017-12-14T16:43:20.949Z,67.20
2017-12-14T16:45:54.544Z,67.00
2017-12-14T16:48:28.150Z,66.70
2017-12-14T16:51:02.767Z,66.80
2017-12-14T16:53:36.478Z,66.80
2017-12-14T16:56:10.070Z,66.80
2017-12-14T16:58:43.675Z,66.90
2017-12-14T17:01:17.120Z,66.70
2017-12-14T17:03:50.723Z,66.70
2017-12-14T17:06:24.380Z,66.90
2017-12-14T17:08:57.839Z,66.40
2017-12-14T17:11:32.195Z,66.80
2017-12-14T17:14:05.691Z,66.80
2017-12-14T17:16:39.260Z,66.70
2017-12-14T17:19:12.780Z,66.90
2017-12-14T17:21:46.408Z,66.80
2017-12-14T17:24:21.020Z,66.80
2017-12-14T17:26:54.672Z,66.80
2017-12-14T17:29:28.127Z,66.80
2017-12-14T17:32:02.410Z,66.50
2017-12-14T17:34:36.640Z,66.70
2017-12-14T17:37:10.220Z,66.70
2017-12-14T17:39:43.773Z,66.60
2017-12-14T17:42:17.331Z,66.80
2017-12-14T17:44:50.868Z,66.70
2017-12-14T17:47:24.300Z,66.80
2017-12-14T17:49:57.759Z,66.60
2017-12-14T17:52:31.211Z,66.70
2017-12-14T17:55:05.448Z,66.70
2017-12-14T17:57:39.027Z,66.60
2017-12-14T18:00:12.473Z,66.70
2017-12-14T18:02:46.053Z,66.70
2017-12-14T18:05:20.335Z,66.50
2017-12-14T18:07:53.919Z,66.50
2017-12-14T18:10:27.479Z,66.60
2017-12-14T18:13:01.180Z,66.50
2017-12-14T18:15:34.780Z,66.60
2017-12-14T18:18:08.260Z,66.70
2017-12-14T18:20:41.761Z,66.60
2017-12-14T18:23:16.051Z,66.60
2017-12-14T18:25:49.628Z,66.60
2017-12-14T18:28:23.187Z,66.60
2017-12-14T18:30:56.643Z,66.60
2017-12-14T18:33:30.851Z,66.90
2017-12-14T18:36:04.410Z,66.80
2017-12-14T18:38:37.952Z,66.80
2017-12-14T18:41:11.467Z,66.60
2017-12-14T18:43:45.123Z,66.70
2017-12-14T18:46:19.508Z,66.70
2017-12-14T18:48:53.911Z,66.60
2017-12-14T18:51:27.475Z,66.50
2017-12-14T18:54:00.951Z,66.80
2017-12-14T18:56:35.223Z,66.70
2017-12-14T18:59:08.767Z,66.70
2017-12-14T19:01:42.218Z,66.40
2017-12-14T19:04:16.444Z,66.50
2017-12-14T19:06:49.961Z,66.50
2017-12-14T19:09:23.487Z,66.50
2017-12-14T19:11:57.848Z,66.90
2017-12-14T19:14:31.396Z,66.90
2017-12-14T19:17:04.839Z,67.10
2017-12-14T19:19:38.291Z,67.10
2017-12-14T19:22:11.819Z,67.20
2017-12-14T19:24:45.265Z,67.10
2017-12-14T19:27:18.772Z,67.00
2017-12-14T19:29:52.224Z,67.20
2017-12-14T19:32:26.551Z,67.30
2017-12-14T19:35:00.084Z,67.30
2017-12-14T19:37:33.591Z,67.60
2017-12-14T19:40:07.875Z,67.60
2017-12-14T19:42:42.283Z,67.70
2017-12-14T19:45:15.820Z,67.70
2017-12-14T19:47:49.327Z,68.00
2017-12-14T19:50:23.005Z,67.90
2017-12-14T19:52:56.486Z,68.10
2017-12-14T19:55:30.150Z,68.00
2017-12-14T19:58:03.592Z,68.10
2017-12-14T20:00:38.349Z,68.50
2017-12-14T20:03:11.805Z,68.50
2017-12-14T20:05:45.337Z,68.40
2017-12-14T20:08:18.775Z,68.40
2017-12-14T20:10:52.336Z,68.70
2017-12-14T20:13:25.840Z,68.70
2017-12-14T20:15:59.305Z,68.70
2017-12-14T20:18:33.507Z,68.80
2017-12-14T20:21:07.099Z,68.70
2017-12-14T20:23:40.641Z,68.60
2017-12-14T20:26:14.312Z,68.60
2017-12-14T20:28:47.756Z,68.60
2017-12-14T20:31:21.232Z,68.60
2017-12-14T20:33:54.721Z,68.70
2017-12-14T20:36:28.243Z,68.90
2017-12-14T20:39:01.695Z,69.00
2017-12-14T20:41:35.146Z,68.90
2017-12-14T20:44:08.696Z,68.80
2017-12-14T20:46:42.351Z,68.90
2017-12-14T20:49:15.809Z,68.90
2017-12-14T20:51:50.017Z,69.10
2017-12-14T20:54:23.558Z,68.90
2017-12-14T20:56:57.115Z,69.00
2017-12-14T20:59:30.691Z,68.90
2017-12-14T21:02:04.245Z,68.80
2017-12-14T21:04:37.703Z,68.90
2017-12-14T21:07:11.957Z,68.30
2017-12-14T21:09:45.412Z,68.30
2017-12-14T21:12:18.872Z,68.30
2017-12-14T21:14:52.319Z,68.40
2017-12-14T21:17:25.768Z,68.10
2017-12-14T21:19:59.368Z,68.20
2017-12-14T21:22:32.891Z,67.80
2017-12-14T21:25:06.336Z,68.10
2017-12-14T21:27:39.859Z,67.60
2017-12-14T21:30:14.135Z,67.50
2017-12-14T21:32:48.367Z,67.60
2017-12-14T21:35:21.820Z,67.50
2017-12-14T21:37:55.317Z,67.30
2017-12-14T21:40:28.834Z,67.90
2017-12-14T21:43:02.283Z,68.10
2017-12-14T21:45:35.805Z,67.80
2017-12-14T21:48:09.293Z,67.70
2017-12-14T21:50:42.743Z,67.60
2017-12-14T21:53:16.959Z,67.70
2017-12-14T21:55:51.182Z,67.70
2017-12-14T21:58:25.471Z,67.50
2017-12-14T22:00:59.082Z,67.50
2017-12-14T22:03:32.524Z,67.20
2017-12-14T22:06:05.979Z,67.10
2017-12-14T22:08:40.191Z,67.50
2017-12-14T22:11:13.724Z,67.50
2017-12-14T22:13:47.238Z,67.30
2017-12-14T22:16:20.697Z,67.50
2017-12-14T22:18:54.899Z,67.70
2017-12-14T22:21:28.407Z,67.70
2017-12-14T22:24:01.916Z,67.90
2017-12-14T22:26:36.131Z,67.80
2017-12-14T22:29:09.637Z,67.70
2017-12-14T22:31:43.151Z,68.00
2017-12-14T22:34:16.615Z,68.20
2017-12-14T22:36:50.131Z,68.00
2017-12-14T22:39:24.559Z,68.30
2017-12-14T22:41:58.848Z,68.20
2017-12-14T22:44:33.267Z,68.20
2017-12-14T22:47:06.759Z,68.20
2017-12-14T22:49:40.208Z,67.90
2017-12-14T22:52:13.676Z,68.00
2017-12-14T22:54:47.191Z,67.90
2017-12-14T22:57:20.635Z,67.50
2017-12-14T22:59:54.147Z,67.70
2017-12-14T23:02:27.594Z,68.00
2017-12-14T23:05:01.872Z,68.10
2017-12-14T23:07:35.443Z,68.10
2017-12-14T23:10:08.960Z,68.10
2017-12-14T23:12:42.403Z,68.10
2017-12-14T23:15:15.935Z,68.20
2017-12-14T23:17:49.393Z,68.20
2017-12-14T23:20:23.002Z,68.00
2017-12-14T23:22:56.579Z,68.30
2017-12-14T23:25:30.332Z,68.50
2017-12-14T23:28:03.939Z,68.40
2017-12-14T23:30:37.828Z,68.30
2017-12-14T23:33:11.522Z,68.60
2017-12-14T23:35:45.120Z,68.50
2017-12-14T23:38:18.784Z,68.60
2017-12-14T23:40:52.427Z,68.60
2017-12-14T23:43:26.007Z,68.70
2017-12-14T23:45:59.680Z,68.60
2017-12-14T23:48:33.915Z,68.60
2017-12-14T23:51:07.550Z,68.60
2017-12-14T23:53:41.242Z,68.70
2017-12-14T23:56:14.959Z,69.30
2017-12-14T23:58:48.552Z,68.90
